sensor_id;sensor_type;location;lat;lon;timestamp;P1;durP1;ratioP1;P2;durP2;ratioP2
15708;SDS011;7954;51.914;8.420;2022-11-20T00:01:28;8.67;;;7.20;;
15708;SDS011;7954;51.914;8.420;2022-11-20T00:03:58;9.53;;;8.23;;
15708;SDS011;7954;51.914;8.420;2022-11-20T00:06:27;10.23;;;8.63;;
15708;SDS011;7954;51.914;8.420;2022-11-20T00:08:56;9.73;;;8.10;;
15708;SDS011;7954;51.914;8.420;2022-11-20T00:11:27;9.37;;;8.23;;
15708;SDS011;7954;51.914;8.420;2022-11-20T00:13:57;10.73;;;9.20;;
15708;SDS011;7954;51.914;8.420;2022-11-20T00:16:28;9.67;;;8.53;;
15708;SDS011;7954;51.914;8.420;2022-11-20T00:18:59;8.73;;;7.83;;
15708;SDS011;7954;51.914;8.420;2022-11-20T00:21:29;9.57;;;7.97;;
15708;SDS011;7954;51.914;8.420;2022-11-20T00:23:58;9.67;;;8.67;;
15708;SDS011;7954;51.914;8.420;2022-11-20T00:26:27;9.57;;;8.47;;
15708;SDS011;7954;51.914;8.420;2022-11-20T00:28:56;11.17;;;8.20;;
15708;SDS011;7954;51.914;8.420;2022-11-20T00:31:25;10.53;;;8.13;;
15708;SDS011;7954;51.914;8.420;2022-11-20T00:33:54;9.90;;;8.10;;
15708;SDS011;7954;51.914;8.420;2022-11-20T00:36:25;10.30;;;8.73;;
15708;SDS011;7954;51.914;8.420;2022-11-20T00:38:55;9.93;;;8.80;;
15708;SDS011;7954;51.914;8.420;2022-11-20T00:41:24;10.87;;;8.33;;
15708;SDS011;7954;51.914;8.420;2022-11-20T00:43:53;9.90;;;7.80;;
15708;SDS011;7954;51.914;8.420;2022-11-20T00:46:23;9.50;;;8.47;;
15708;SDS011;7954;51.914;8.420;2022-11-20T00:48:52;9.20;;;8.17;;
15708;SDS011;7954;51.914;8.420;2022-11-20T00:51:21;8.67;;;7.73;;
15708;SDS011;7954;51.914;8.420;2022-11-20T00:53:51;8.07;;;7.23;;
15708;SDS011;7954;51.914;8.420;2022-11-20T00:56:21;8.43;;;7.50;;
15708;SDS011;7954;51.914;8.420;2022-11-20T00:58:50;10.20;;;8.47;;
15708;SDS011;7954;51.914;8.420;2022-11-20T01:01:18;9.03;;;7.77;;
15708;SDS011;7954;51.914;8.420;2022-11-20T01:03:48;9.23;;;8.27;;
15708;SDS011;7954;51.914;8.420;2022-11-20T01:06:18;9.20;;;8.30;;
15708;SDS011;7954;51.914;8.420;2022-11-20T01:08:48;9.43;;;7.60;;
15708;SDS011;7954;51.914;8.420;2022-11-20T01:11:19;10.60;;;9.20;;
15708;SDS011;7954;51.914;8.420;2022-11-20T01:13:49;8.63;;;7.70;;
15708;SDS011;7954;51.914;8.420;2022-11-20T01:16:18;9.53;;;8.10;;
15708;SDS011;7954;51.914;8.420;2022-11-20T01:18:48;10.00;;;7.70;;
15708;SDS011;7954;51.914;8.420;2022-11-20T01:21:18;9.43;;;8.13;;
15708;SDS011;7954;51.914;8.420;2022-11-20T01:23:49;8.87;;;7.93;;
15708;SDS011;7954;51.914;8.420;2022-11-20T01:26:20;8.33;;;7.43;;
15708;SDS011;7954;51.914;8.420;2022-11-20T01:28:50;9.83;;;8.27;;
15708;SDS011;7954;51.914;8.420;2022-11-20T01:31:18;9.77;;;7.97;;
15708;SDS011;7954;51.914;8.420;2022-11-20T01:33:49;10.83;;;8.23;;
15708;SDS011;7954;51.914;8.420;2022-11-20T01:36:19;11.07;;;9.20;;
15708;SDS011;7954;51.914;8.420;2022-11-20T01:38:50;10.13;;;8.90;;
15708;SDS011;7954;51.914;8.420;2022-11-20T01:41:22;10.07;;;8.17;;
15708;SDS011;7954;51.914;8.420;2022-11-20T01:44:11;9.30;;;8.10;;
15708;SDS011;7954;51.914;8.420;2022-11-20T01:46:42;9.40;;;7.83;;
15708;SDS011;7954;51.914;8.420;2022-11-20T01:49:21;8.57;;;7.43;;
15708;SDS011;7954;51.914;8.420;2022-11-20T01:51:52;7.90;;;6.90;;
15708;SDS011;7954;51.914;8.420;2022-11-20T01:54:25;7.80;;;7.00;;
15708;SDS011;7954;51.914;8.420;2022-11-20T01:56:59;7.13;;;6.37;;
15708;SDS011;7954;51.914;8.420;2022-11-20T01:59:28;8.03;;;7.23;;
15708;SDS011;7954;51.914;8.420;2022-11-20T02:01:57;8.77;;;7.27;;
15708;SDS011;7954;51.914;8.420;2022-11-20T02:04:25;8.63;;;7.63;;
15708;SDS011;7954;51.914;8.420;2022-11-20T02:06:57;6.73;;;5.93;;
15708;SDS011;7954;51.914;8.420;2022-11-20T02:09:27;8.03;;;7.20;;
15708;SDS011;7954;51.914;8.420;2022-11-20T02:11:55;8.80;;;7.90;;
15708;SDS011;7954;51.914;8.420;2022-11-20T02:14:26;6.83;;;6.07;;
15708;SDS011;7954;51.914;8.420;2022-11-20T02:16:54;8.57;;;7.40;;
15708;SDS011;7954;51.914;8.420;2022-11-20T02:19:24;8.20;;;6.63;;
15708;SDS011;7954;51.914;8.420;2022-11-20T02:21:56;8.53;;;6.50;;
15708;SDS011;7954;51.914;8.420;2022-11-20T02:24:32;7.87;;;6.67;;
15708;SDS011;7954;51.914;8.420;2022-11-20T02:27:00;6.83;;;6.13;;
15708;SDS011;7954;51.914;8.420;2022-11-20T02:29:32;8.27;;;7.00;;
15708;SDS011;7954;51.914;8.420;2022-11-20T02:32:03;7.33;;;6.40;;
15708;SDS011;7954;51.914;8.420;2022-11-20T02:34:31;6.73;;;6.03;;
15708;SDS011;7954;51.914;8.420;2022-11-20T02:36:59;7.13;;;6.30;;
15708;SDS011;7954;51.914;8.420;2022-11-20T02:39:27;7.30;;;6.13;;
15708;SDS011;7954;51.914;8.420;2022-11-20T02:42:00;8.90;;;6.90;;
15708;SDS011;7954;51.914;8.420;2022-11-20T02:44:28;7.83;;;6.50;;
15708;SDS011;7954;51.914;8.420;2022-11-20T02:46:56;7.53;;;6.73;;
15708;SDS011;7954;51.914;8.420;2022-11-20T02:49:25;8.03;;;7.10;;
15708;SDS011;7954;51.914;8.420;2022-11-20T02:51:53;7.43;;;6.33;;
15708;SDS011;7954;51.914;8.420;2022-11-20T02:54:21;7.90;;;7.10;;
15708;SDS011;7954;51.914;8.420;2022-11-20T02:56:49;10.27;;;6.93;;
15708;SDS011;7954;51.914;8.420;2022-11-20T02:59:20;8.10;;;6.90;;
15708;SDS011;7954;51.914;8.420;2022-11-20T03:01:49;8.40;;;7.00;;
15708;SDS011;7954;51.914;8.420;2022-11-20T03:04:17;7.33;;;6.60;;
15708;SDS011;7954;51.914;8.420;2022-11-20T03:06:45;7.33;;;6.53;;
15708;SDS011;7954;51.914;8.420;2022-11-20T03:09:13;7.33;;;6.60;;
15708;SDS011;7954;51.914;8.420;2022-11-20T03:11:41;7.00;;;6.10;;
15708;SDS011;7954;51.914;8.420;2022-11-20T03:14:09;6.90;;;6.20;;
15708;SDS011;7954;51.914;8.420;2022-11-20T03:16:38;7.50;;;6.53;;
15708;SDS011;7954;51.914;8.420;2022-11-20T03:19:06;7.47;;;6.53;;
15708;SDS011;7954;51.914;8.420;2022-11-20T03:21:35;8.13;;;6.03;;
15708;SDS011;7954;51.914;8.420;2022-11-20T03:24:03;7.33;;;6.40;;
15708;SDS011;7954;51.914;8.420;2022-11-20T03:26:32;6.87;;;6.10;;
15708;SDS011;7954;51.914;8.420;2022-11-20T03:29:01;10.47;;;7.20;;
15708;SDS011;7954;51.914;8.420;2022-11-20T03:31:31;7.97;;;6.77;;
15708;SDS011;7954;51.914;8.420;2022-11-20T03:34:02;7.77;;;6.90;;
15708;SDS011;7954;51.914;8.420;2022-11-20T03:36:31;7.73;;;6.93;;
15708;SDS011;7954;51.914;8.420;2022-11-20T03:39:01;7.57;;;6.50;;
15708;SDS011;7954;51.914;8.420;2022-11-20T03:41:29;7.80;;;6.33;;
15708;SDS011;7954;51.914;8.420;2022-11-20T03:44:00;7.70;;;6.90;;
15708;SDS011;7954;51.914;8.420;2022-11-20T03:46:29;8.27;;;7.30;;
15708;SDS011;7954;51.914;8.420;2022-11-20T03:48:58;7.50;;;6.60;;
15708;SDS011;7954;51.914;8.420;2022-11-20T03:51:28;6.80;;;5.67;;
15708;SDS011;7954;51.914;8.420;2022-11-20T03:53:58;7.60;;;6.37;;
15708;SDS011;7954;51.914;8.420;2022-11-20T03:56:28;7.67;;;6.47;;
15708;SDS011;7954;51.914;8.420;2022-11-20T03:58:57;8.00;;;6.33;;
15708;SDS011;7954;51.914;8.420;2022-11-20T04:01:27;7.93;;;7.07;;
15708;SDS011;7954;51.914;8.420;2022-11-20T04:03:57;7.70;;;6.57;;
15708;SDS011;7954;51.914;8.420;2022-11-20T04:06:28;7.73;;;6.93;;
15708;SDS011;7954;51.914;8.420;2022-11-20T04:08:57;6.80;;;6.10;;
15708;SDS011;7954;51.914;8.420;2022-11-20T04:11:26;7.10;;;6.00;;
15708;SDS011;7954;51.914;8.420;2022-11-20T04:13:55;9.40;;;6.23;;
15708;SDS011;7954;51.914;8.420;2022-11-20T04:16:26;7.67;;;6.60;;
15708;SDS011;7954;51.914;8.420;2022-11-20T04:18:57;6.63;;;5.93;;
15708;SDS011;7954;51.914;8.420;2022-11-20T04:21:27;7.37;;;6.60;;
15708;SDS011;7954;51.914;8.420;2022-11-20T04:23:56;7.43;;;6.63;;
15708;SDS011;7954;51.914;8.420;2022-11-20T04:26:25;7.33;;;6.60;;
15708;SDS011;7954;51.914;8.420;2022-11-20T04:28:55;6.67;;;5.97;;
15708;SDS011;7954;51.914;8.420;2022-11-20T04:31:24;8.10;;;6.67;;
15708;SDS011;7954;51.914;8.420;2022-11-20T04:33:53;7.43;;;6.40;;
15708;SDS011;7954;51.914;8.420;2022-11-20T04:36:22;7.40;;;6.60;;
15708;SDS011;7954;51.914;8.420;2022-11-20T04:38:54;7.67;;;6.70;;
15708;SDS011;7954;51.914;8.420;2022-11-20T04:41:23;6.90;;;6.00;;
15708;SDS011;7954;51.914;8.420;2022-11-20T04:43:53;7.43;;;6.57;;
15708;SDS011;7954;51.914;8.420;2022-11-20T04:46:26;7.10;;;6.40;;
15708;SDS011;7954;51.914;8.420;2022-11-20T04:48:55;7.03;;;6.33;;
15708;SDS011;7954;51.914;8.420;2022-11-20T04:51:23;6.67;;;5.73;;
15708;SDS011;7954;51.914;8.420;2022-11-20T04:53:51;7.07;;;6.33;;
15708;SDS011;7954;51.914;8.420;2022-11-20T04:56:20;7.17;;;6.00;;
15708;SDS011;7954;51.914;8.420;2022-11-20T04:58:49;5.97;;;5.30;;
15708;SDS011;7954;51.914;8.420;2022-11-20T05:01:18;6.77;;;5.10;;
15708;SDS011;7954;51.914;8.420;2022-11-20T05:03:47;6.40;;;5.70;;
15708;SDS011;7954;51.914;8.420;2022-11-20T05:06:16;6.60;;;5.90;;
15708;SDS011;7954;51.914;8.420;2022-11-20T05:08:45;5.90;;;5.30;;
15708;SDS011;7954;51.914;8.420;2022-11-20T05:11:14;6.63;;;5.50;;
15708;SDS011;7954;51.914;8.420;2022-11-20T05:13:45;6.80;;;5.77;;
15708;SDS011;7954;51.914;8.420;2022-11-20T05:16:14;5.67;;;5.03;;
15708;SDS011;7954;51.914;8.420;2022-11-20T05:18:44;5.27;;;4.77;;
15708;SDS011;7954;51.914;8.420;2022-11-20T05:21:14;6.10;;;5.33;;
15708;SDS011;7954;51.914;8.420;2022-11-20T05:23:43;6.30;;;5.00;;
15708;SDS011;7954;51.914;8.420;2022-11-20T05:26:13;5.90;;;5.20;;
15708;SDS011;7954;51.914;8.420;2022-11-20T05:28:45;5.57;;;4.93;;
15708;SDS011;7954;51.914;8.420;2022-11-20T05:31:14;5.83;;;5.23;;
15708;SDS011;7954;51.914;8.420;2022-11-20T05:33:51;5.60;;;4.90;;
15708;SDS011;7954;51.914;8.420;2022-11-20T05:36:19;5.70;;;5.10;;
15708;SDS011;7954;51.914;8.420;2022-11-20T05:38:48;5.53;;;4.93;;
15708;SDS011;7954;51.914;8.420;2022-11-20T05:41:18;5.37;;;4.87;;
15708;SDS011;7954;51.914;8.420;2022-11-20T05:43:48;5.67;;;4.87;;
15708;SDS011;7954;51.914;8.420;2022-11-20T05:46:18;5.30;;;4.80;;
15708;SDS011;7954;51.914;8.420;2022-11-20T05:48:55;5.93;;;5.30;;
15708;SDS011;7954;51.914;8.420;2022-11-20T05:51:23;5.57;;;4.93;;
15708;SDS011;7954;51.914;8.420;2022-11-20T05:53:52;5.17;;;4.67;;
15708;SDS011;7954;51.914;8.420;2022-11-20T05:56:21;5.03;;;4.50;;
15708;SDS011;7954;51.914;8.420;2022-11-20T05:58:50;6.10;;;5.23;;
15708;SDS011;7954;51.914;8.420;2022-11-20T06:01:19;5.63;;;5.03;;
15708;SDS011;7954;51.914;8.420;2022-11-20T06:03:48;5.60;;;5.00;;
15708;SDS011;7954;51.914;8.420;2022-11-20T06:06:17;7.27;;;4.93;;
15708;SDS011;7954;51.914;8.420;2022-11-20T06:08:46;5.10;;;4.60;;
15708;SDS011;7954;51.914;8.420;2022-11-20T06:11:15;5.97;;;5.13;;
15708;SDS011;7954;51.914;8.420;2022-11-20T06:13:43;6.47;;;5.10;;
15708;SDS011;7954;51.914;8.420;2022-11-20T06:16:14;6.90;;;5.73;;
15708;SDS011;7954;51.914;8.420;2022-11-20T06:18:43;4.80;;;4.30;;
15708;SDS011;7954;51.914;8.420;2022-11-20T06:21:14;5.73;;;4.80;;
15708;SDS011;7954;51.914;8.420;2022-11-20T06:23:43;5.87;;;5.10;;
15708;SDS011;7954;51.914;8.420;2022-11-20T06:26:12;4.87;;;4.33;;
15708;SDS011;7954;51.914;8.420;2022-11-20T06:28:42;5.00;;;4.50;;
15708;SDS011;7954;51.914;8.420;2022-11-20T06:31:10;6.00;;;5.40;;
15708;SDS011;7954;51.914;8.420;2022-11-20T06:33:41;5.20;;;4.70;;
15708;SDS011;7954;51.914;8.420;2022-11-20T06:36:10;5.37;;;4.63;;
15708;SDS011;7954;51.914;8.420;2022-11-20T06:38:39;5.20;;;4.70;;
15708;SDS011;7954;51.914;8.420;2022-11-20T06:41:08;5.33;;;4.77;;
15708;SDS011;7954;51.914;8.420;2022-11-20T06:43:39;5.10;;;4.60;;
15708;SDS011;7954;51.914;8.420;2022-11-20T06:46:08;4.87;;;4.37;;
15708;SDS011;7954;51.914;8.420;2022-11-20T06:48:37;4.93;;;4.43;;
15708;SDS011;7954;51.914;8.420;2022-11-20T06:51:07;4.83;;;4.37;;
15708;SDS011;7954;51.914;8.420;2022-11-20T06:53:35;5.40;;;4.90;;
15708;SDS011;7954;51.914;8.420;2022-11-20T06:56:04;4.80;;;4.30;;
15708;SDS011;7954;51.914;8.420;2022-11-20T06:58:33;4.97;;;4.50;;
15708;SDS011;7954;51.914;8.420;2022-11-20T07:01:03;5.57;;;4.97;;
15708;SDS011;7954;51.914;8.420;2022-11-20T07:03:32;6.17;;;4.67;;
15708;SDS011;7954;51.914;8.420;2022-11-20T07:06:02;5.07;;;4.43;;
15708;SDS011;7954;51.914;8.420;2022-11-20T07:08:32;4.70;;;4.30;;
15708;SDS011;7954;51.914;8.420;2022-11-20T07:11:02;7.13;;;4.67;;
15708;SDS011;7954;51.914;8.420;2022-11-20T07:13:31;5.40;;;4.90;;
15708;SDS011;7954;51.914;8.420;2022-11-20T07:16:00;6.57;;;4.90;;
15708;SDS011;7954;51.914;8.420;2022-11-20T07:18:29;5.10;;;4.60;;
15708;SDS011;7954;51.914;8.420;2022-11-20T07:20:59;5.90;;;5.20;;
15708;SDS011;7954;51.914;8.420;2022-11-20T07:23:28;6.70;;;4.63;;
15708;SDS011;7954;51.914;8.420;2022-11-20T07:25:58;5.30;;;4.80;;
15708;SDS011;7954;51.914;8.420;2022-11-20T07:28:29;5.07;;;4.57;;
15708;SDS011;7954;51.914;8.420;2022-11-20T07:30:58;6.17;;;4.70;;
15708;SDS011;7954;51.914;8.420;2022-11-20T07:33:28;5.20;;;4.50;;
15708;SDS011;7954;51.914;8.420;2022-11-20T07:35:58;4.90;;;4.40;;
15708;SDS011;7954;51.914;8.420;2022-11-20T07:38:26;5.07;;;4.57;;
15708;SDS011;7954;51.914;8.420;2022-11-20T07:40:57;8.33;;;5.33;;
15708;SDS011;7954;51.914;8.420;2022-11-20T07:43:27;6.70;;;6.10;;
15708;SDS011;7954;51.914;8.420;2022-11-20T07:45:55;6.50;;;5.90;;
15708;SDS011;7954;51.914;8.420;2022-11-20T07:48:23;7.83;;;6.67;;
15708;SDS011;7954;51.914;8.420;2022-11-20T07:50:53;7.37;;;6.00;;
15708;SDS011;7954;51.914;8.420;2022-11-20T07:53:21;6.07;;;5.57;;
15708;SDS011;7954;51.914;8.420;2022-11-20T07:55:50;6.93;;;6.20;;
15708;SDS011;7954;51.914;8.420;2022-11-20T07:58:21;11.17;;;9.07;;
15708;SDS011;7954;51.914;8.420;2022-11-20T08:00:50;10.57;;;8.60;;
15708;SDS011;7954;51.914;8.420;2022-11-20T08:03:19;9.30;;;8.40;;
15708;SDS011;7954;51.914;8.420;2022-11-20T08:05:50;9.87;;;8.83;;
15708;SDS011;7954;51.914;8.420;2022-11-20T08:08:19;8.43;;;7.63;;
15708;SDS011;7954;51.914;8.420;2022-11-20T08:10:46;8.07;;;7.33;;
15708;SDS011;7954;51.914;8.420;2022-11-20T08:13:14;5.97;;;5.37;;
15708;SDS011;7954;51.914;8.420;2022-11-20T08:16:01;6.63;;;5.93;;
15708;SDS011;7954;51.914;8.420;2022-11-20T08:18:29;9.60;;;8.70;;
15708;SDS011;7954;51.914;8.420;2022-11-20T08:21:01;9.97;;;8.97;;
15708;SDS011;7954;51.914;8.420;2022-11-20T08:23:30;6.93;;;6.23;;
15708;SDS011;7954;51.914;8.420;2022-11-20T08:25:58;7.27;;;6.57;;
15708;SDS011;7954;51.914;8.420;2022-11-20T08:28:26;6.80;;;6.20;;
15708;SDS011;7954;51.914;8.420;2022-11-20T08:30:57;6.43;;;5.43;;
15708;SDS011;7954;51.914;8.420;2022-11-20T08:33:27;6.87;;;5.57;;
15708;SDS011;7954;51.914;8.420;2022-11-20T08:35:58;6.63;;;5.93;;
15708;SDS011;7954;51.914;8.420;2022-11-20T08:38:27;6.30;;;5.70;;
15708;SDS011;7954;51.914;8.420;2022-11-20T08:40:56;6.80;;;6.10;;
15708;SDS011;7954;51.914;8.420;2022-11-20T08:43:47;9.70;;;8.63;;
15708;SDS011;7954;51.914;8.420;2022-11-20T08:46:15;9.17;;;8.20;;
15708;SDS011;7954;51.914;8.420;2022-11-20T08:48:46;9.97;;;8.90;;
15708;SDS011;7954;51.914;8.420;2022-11-20T08:51:14;9.57;;;8.10;;
15708;SDS011;7954;51.914;8.420;2022-11-20T08:53:42;8.00;;;7.20;;
15708;SDS011;7954;51.914;8.420;2022-11-20T08:56:10;7.10;;;6.37;;
15708;SDS011;7954;51.914;8.420;2022-11-20T08:58:39;6.60;;;5.93;;
15708;SDS011;7954;51.914;8.420;2022-11-20T09:01:27;7.50;;;6.80;;
15708;SDS011;7954;51.914;8.420;2022-11-20T09:03:58;8.60;;;7.03;;
15708;SDS011;7954;51.914;8.420;2022-11-20T09:06:26;8.10;;;7.03;;
15708;SDS011;7954;51.914;8.420;2022-11-20T09:08:55;7.67;;;6.50;;
15708;SDS011;7954;51.914;8.420;2022-11-20T09:11:28;7.40;;;6.67;;
15708;SDS011;7954;51.914;8.420;2022-11-20T09:13:56;6.90;;;6.20;;
15708;SDS011;7954;51.914;8.420;2022-11-20T09:16:24;7.53;;;6.13;;
15708;SDS011;7954;51.914;8.420;2022-11-20T09:18:53;6.53;;;5.83;;
15708;SDS011;7954;51.914;8.420;2022-11-20T09:21:43;6.30;;;5.70;;
15708;SDS011;7954;51.914;8.420;2022-11-20T09:24:11;6.27;;;5.67;;
15708;SDS011;7954;51.914;8.420;2022-11-20T09:26:38;6.80;;;5.97;;
15708;SDS011;7954;51.914;8.420;2022-11-20T09:29:07;6.30;;;5.70;;
15708;SDS011;7954;51.914;8.420;2022-11-20T09:31:35;7.40;;;6.60;;
15708;SDS011;7954;51.914;8.420;2022-11-20T09:34:03;7.00;;;6.30;;
15708;SDS011;7954;51.914;8.420;2022-11-20T09:36:31;6.10;;;5.50;;
15708;SDS011;7954;51.914;8.420;2022-11-20T09:39:01;6.80;;;6.20;;
15708;SDS011;7954;51.914;8.420;2022-11-20T09:41:36;7.20;;;6.50;;
15708;SDS011;7954;51.914;8.420;2022-11-20T09:44:19;6.67;;;6.07;;
15708;SDS011;7954;51.914;8.420;2022-11-20T09:47:05;7.30;;;6.70;;
15708;SDS011;7954;51.914;8.420;2022-11-20T09:49:41;6.67;;;6.03;;
15708;SDS011;7954;51.914;8.420;2022-11-20T09:52:21;6.60;;;6.07;;
15708;SDS011;7954;51.914;8.420;2022-11-20T09:54:57;6.67;;;6.07;;
15708;SDS011;7954;51.914;8.420;2022-11-20T09:57:30;6.30;;;5.70;;
15708;SDS011;7954;51.914;8.420;2022-11-20T10:00:03;6.30;;;5.70;;
15708;SDS011;7954;51.914;8.420;2022-11-20T10:02:35;8.23;;;6.33;;
15708;SDS011;7954;51.914;8.420;2022-11-20T10:05:10;7.33;;;6.63;;
15708;SDS011;7954;51.914;8.420;2022-11-20T10:07:44;6.87;;;6.17;;
15708;SDS011;7954;51.914;8.420;2022-11-20T10:10:20;6.80;;;6.20;;
15708;SDS011;7954;51.914;8.420;2022-11-20T10:12:59;6.63;;;6.03;;
15708;SDS011;7954;51.914;8.420;2022-11-20T10:15:41;7.43;;;6.73;;
15708;SDS011;7954;51.914;8.420;2022-11-20T10:18:23;7.00;;;6.40;;
15708;SDS011;7954;51.914;8.420;2022-11-20T10:21:01;6.50;;;5.90;;
15708;SDS011;7954;51.914;8.420;2022-11-20T10:23:44;6.77;;;6.17;;
15708;SDS011;7954;51.914;8.420;2022-11-20T10:26:26;7.67;;;6.60;;
15708;SDS011;7954;51.914;8.420;2022-11-20T10:29:05;7.30;;;6.50;;
15708;SDS011;7954;51.914;8.420;2022-11-20T10:31:39;7.23;;;6.53;;
15708;SDS011;7954;51.914;8.420;2022-11-20T10:34:12;6.53;;;5.93;;
15708;SDS011;7954;51.914;8.420;2022-11-20T10:36:49;6.30;;;5.70;;
15708;SDS011;7954;51.914;8.420;2022-11-20T10:39:24;6.83;;;6.20;;
15708;SDS011;7954;51.914;8.420;2022-11-20T10:41:59;6.80;;;6.20;;
15708;SDS011;7954;51.914;8.420;2022-11-20T10:44:28;6.93;;;6.33;;
15708;SDS011;7954;51.914;8.420;2022-11-20T10:47:21;6.30;;;5.70;;
15708;SDS011;7954;51.914;8.420;2022-11-20T10:49:52;7.60;;;6.50;;
15708;SDS011;7954;51.914;8.420;2022-11-20T10:52:24;6.83;;;6.23;;
15708;SDS011;7954;51.914;8.420;2022-11-20T10:55:03;7.47;;;6.77;;
15708;SDS011;7954;51.914;8.420;2022-11-20T10:57:46;7.17;;;6.47;;
15708;SDS011;7954;51.914;8.420;2022-11-20T11:00:20;7.07;;;6.43;;
15708;SDS011;7954;51.914;8.420;2022-11-20T11:02:49;7.00;;;6.40;;
15708;SDS011;7954;51.914;8.420;2022-11-20T11:05:31;7.13;;;6.47;;
15708;SDS011;7954;51.914;8.420;2022-11-20T11:08:04;7.20;;;6.50;;
15708;SDS011;7954;51.914;8.420;2022-11-20T11:10:39;7.30;;;6.60;;
15708;SDS011;7954;51.914;8.420;2022-11-20T11:13:21;6.40;;;5.70;;
15708;SDS011;7954;51.914;8.420;2022-11-20T11:15:50;7.27;;;6.57;;
15708;SDS011;7954;51.914;8.420;2022-11-20T11:18:23;7.10;;;6.40;;
15708;SDS011;7954;51.914;8.420;2022-11-20T11:20:54;7.10;;;6.50;;
15708;SDS011;7954;51.914;8.420;2022-11-20T11:23:27;6.73;;;6.13;;
15708;SDS011;7954;51.914;8.420;2022-11-20T11:26:02;7.07;;;6.47;;
15708;SDS011;7954;51.914;8.420;2022-11-20T11:28:34;6.83;;;6.23;;
15708;SDS011;7954;51.914;8.420;2022-11-20T11:31:02;7.47;;;6.77;;
15708;SDS011;7954;51.914;8.420;2022-11-20T11:33:31;6.77;;;6.13;;
15708;SDS011;7954;51.914;8.420;2022-11-20T11:36:01;7.00;;;6.37;;
15708;SDS011;7954;51.914;8.420;2022-11-20T11:38:32;6.60;;;6.00;;
15708;SDS011;7954;51.914;8.420;2022-11-20T11:41:03;7.10;;;6.40;;
15708;SDS011;7954;51.914;8.420;2022-11-20T11:43:35;7.00;;;6.40;;
15708;SDS011;7954;51.914;8.420;2022-11-20T11:46:27;6.53;;;5.93;;
15708;SDS011;7954;51.914;8.420;2022-11-20T11:48:58;8.60;;;6.30;;
15708;SDS011;7954;51.914;8.420;2022-11-20T11:51:29;6.77;;;6.07;;
15708;SDS011;7954;51.914;8.420;2022-11-20T11:54:03;6.43;;;5.83;;
15708;SDS011;7954;51.914;8.420;2022-11-20T11:56:38;7.10;;;6.40;;
15708;SDS011;7954;51.914;8.420;2022-11-20T11:59:10;6.90;;;6.30;;
15708;SDS011;7954;51.914;8.420;2022-11-20T12:01:44;6.77;;;6.17;;
15708;SDS011;7954;51.914;8.420;2022-11-20T12:04:19;6.90;;;6.30;;
15708;SDS011;7954;51.914;8.420;2022-11-20T12:06:56;7.33;;;6.63;;
15708;SDS011;7954;51.914;8.420;2022-11-20T12:09:49;7.70;;;6.90;;
15708;SDS011;7954;51.914;8.420;2022-11-20T12:12:22;8.03;;;7.23;;
15708;SDS011;7954;51.914;8.420;2022-11-20T12:14:56;7.40;;;6.70;;
15708;SDS011;7954;51.914;8.420;2022-11-20T12:17:25;6.93;;;6.30;;
15708;SDS011;7954;51.914;8.420;2022-11-20T12:19:53;6.87;;;6.27;;
15708;SDS011;7954;51.914;8.420;2022-11-20T12:22:25;6.80;;;6.20;;
15708;SDS011;7954;51.914;8.420;2022-11-20T12:25:03;7.43;;;6.73;;
15708;SDS011;7954;51.914;8.420;2022-11-20T12:30:33;7.30;;;6.60;;
15708;SDS011;7954;51.914;8.420;2022-11-20T12:33:15;8.33;;;7.43;;
15708;SDS011;7954;51.914;8.420;2022-11-20T12:36:06;8.00;;;7.20;;
15708;SDS011;7954;51.914;8.420;2022-11-20T12:38:54;7.67;;;6.87;;
15708;SDS011;7954;51.914;8.420;2022-11-20T12:41:40;7.60;;;6.77;;
15708;SDS011;7954;51.914;8.420;2022-11-20T12:44:35;8.07;;;6.97;;
15708;SDS011;7954;51.914;8.420;2022-11-20T12:50:32;7.87;;;7.17;;
15708;SDS011;7954;51.914;8.420;2022-11-20T12:53:31;8.30;;;7.50;;
15708;SDS011;7954;51.914;8.420;2022-11-20T12:56:10;8.27;;;7.33;;
15708;SDS011;7954;51.914;8.420;2022-11-20T12:58:51;8.03;;;7.23;;
15708;SDS011;7954;51.914;8.420;2022-11-20T13:01:30;9.07;;;7.80;;
15708;SDS011;7954;51.914;8.420;2022-11-20T13:04:16;8.70;;;7.67;;
15708;SDS011;7954;51.914;8.420;2022-11-20T13:06:52;8.00;;;7.23;;
15708;SDS011;7954;51.914;8.420;2022-11-20T13:09:21;7.93;;;7.13;;
15708;SDS011;7954;51.914;8.420;2022-11-20T13:11:55;8.30;;;7.50;;
15708;SDS011;7954;51.914;8.420;2022-11-20T13:14:32;8.40;;;7.60;;
15708;SDS011;7954;51.914;8.420;2022-11-20T13:17:05;8.13;;;7.40;;
15708;SDS011;7954;51.914;8.420;2022-11-20T13:19:47;8.53;;;7.73;;
15708;SDS011;7954;51.914;8.420;2022-11-20T13:22:23;9.40;;;8.50;;
15708;SDS011;7954;51.914;8.420;2022-11-20T13:24:53;8.43;;;7.53;;
15708;SDS011;7954;51.914;8.420;2022-11-20T13:27:21;7.97;;;7.17;;
15708;SDS011;7954;51.914;8.420;2022-11-20T13:30:01;8.63;;;7.83;;
15708;SDS011;7954;51.914;8.420;2022-11-20T13:32:47;8.53;;;7.73;;
15708;SDS011;7954;51.914;8.420;2022-11-20T13:35:25;8.90;;;8.10;;
15708;SDS011;7954;51.914;8.420;2022-11-20T13:38:05;8.60;;;7.80;;
15708;SDS011;7954;51.914;8.420;2022-11-20T13:40:35;8.53;;;7.73;;
15708;SDS011;7954;51.914;8.420;2022-11-20T13:43:11;9.40;;;8.50;;
15708;SDS011;7954;51.914;8.420;2022-11-20T13:45:54;7.80;;;7.00;;
15708;SDS011;7954;51.914;8.420;2022-11-20T13:48:25;8.93;;;8.03;;
15708;SDS011;7954;51.914;8.420;2022-11-20T13:51:07;8.60;;;7.83;;
15708;SDS011;7954;51.914;8.420;2022-11-20T13:53:48;7.90;;;7.20;;
15708;SDS011;7954;51.914;8.420;2022-11-20T13:56:32;9.17;;;8.37;;
15708;SDS011;7954;51.914;8.420;2022-11-20T13:59:09;8.60;;;7.80;;
15708;SDS011;7954;51.914;8.420;2022-11-20T14:01:40;8.70;;;7.90;;
15708;SDS011;7954;51.914;8.420;2022-11-20T14:04:14;9.30;;;8.40;;
15708;SDS011;7954;51.914;8.420;2022-11-20T14:06:47;8.80;;;8.00;;
15708;SDS011;7954;51.914;8.420;2022-11-20T14:09:24;10.00;;;9.00;;
15708;SDS011;7954;51.914;8.420;2022-11-20T14:11:54;9.73;;;8.80;;
15708;SDS011;7954;51.914;8.420;2022-11-20T14:14:23;9.73;;;8.33;;
15708;SDS011;7954;51.914;8.420;2022-11-20T14:16:52;9.33;;;8.43;;
15708;SDS011;7954;51.914;8.420;2022-11-20T14:19:26;9.90;;;8.93;;
15708;SDS011;7954;51.914;8.420;2022-11-20T14:22:08;9.73;;;8.73;;
15708;SDS011;7954;51.914;8.420;2022-11-20T14:24:42;9.73;;;8.83;;
15708;SDS011;7954;51.914;8.420;2022-11-20T14:27:12;11.40;;;9.60;;
15708;SDS011;7954;51.914;8.420;2022-11-20T14:29:41;9.80;;;8.80;;
15708;SDS011;7954;51.914;8.420;2022-11-20T14:32:11;9.47;;;8.57;;
15708;SDS011;7954;51.914;8.420;2022-11-20T14:34:43;10.07;;;9.07;;
15708;SDS011;7954;51.914;8.420;2022-11-20T14:37:20;9.40;;;8.50;;
15708;SDS011;7954;51.914;8.420;2022-11-20T14:39:50;9.47;;;8.57;;
15708;SDS011;7954;51.914;8.420;2022-11-20T14:42:21;9.77;;;8.77;;
15708;SDS011;7954;51.914;8.420;2022-11-20T14:44:50;9.73;;;8.83;;
15708;SDS011;7954;51.914;8.420;2022-11-20T14:47:25;9.93;;;9.03;;
15708;SDS011;7954;51.914;8.420;2022-11-20T14:49:55;9.70;;;8.80;;
15708;SDS011;7954;51.914;8.420;2022-11-20T14:52:27;10.50;;;9.50;;
15708;SDS011;7954;51.914;8.420;2022-11-20T14:54:57;10.23;;;9.30;;
15708;SDS011;7954;51.914;8.420;2022-11-20T14:57:27;10.47;;;9.43;;
15708;SDS011;7954;51.914;8.420;2022-11-20T15:00:03;10.63;;;9.53;;
15708;SDS011;7954;51.914;8.420;2022-11-20T15:02:33;11.80;;;10.63;;
15708;SDS011;7954;51.914;8.420;2022-11-20T15:05:02;11.53;;;10.40;;
15708;SDS011;7954;51.914;8.420;2022-11-20T15:07:32;11.77;;;10.57;;
15708;SDS011;7954;51.914;8.420;2022-11-20T15:10:03;11.87;;;10.63;;
15708;SDS011;7954;51.914;8.420;2022-11-20T15:12:33;10.50;;;9.50;;
15708;SDS011;7954;51.914;8.420;2022-11-20T15:15:04;12.03;;;10.60;;
15708;SDS011;7954;51.914;8.420;2022-11-20T15:17:33;11.90;;;9.83;;
15708;SDS011;7954;51.914;8.420;2022-11-20T15:20:05;11.30;;;10.10;;
15708;SDS011;7954;51.914;8.420;2022-11-20T15:22:40;11.03;;;9.90;;
15708;SDS011;7954;51.914;8.420;2022-11-20T15:25:12;11.33;;;10.23;;
15708;SDS011;7954;51.914;8.420;2022-11-20T15:27:41;11.57;;;10.37;;
15708;SDS011;7954;51.914;8.420;2022-11-20T15:30:14;11.17;;;9.97;;
15708;SDS011;7954;51.914;8.420;2022-11-20T15:32:43;10.73;;;8.93;;
15708;SDS011;7954;51.914;8.420;2022-11-20T15:35:12;10.63;;;9.53;;